Time;durP1;ratioP1;P1;durP2;ratioP2;P2;SDS_P1;SDS_P2;PMS_P1;PMS_P2;Temp;Humidity;BMP_temperature;BMP_pressure;BME280_temperature;BME280_humidity;BME280_pressure;Samples;Min_cycle;Max_cycle;Signal;HPM_P1;HPM_P2
2023/11/11 00:00:00;;;;;;;28.70;16.70;;;;;;;6.78;100.00;99134.91;1430538;91;21437;-84
2023/11/11 00:02:26;;;;;;;25.70;16.77;;;;;;;6.80;100.00;99134.77;1430643;91;21562;-84
2023/11/11 00:04:52;;;;;;;22.07;16.03;;;;;;;6.84;100.00;99128.70;1434651;91;21377;-84
2023/11/11 00:07:19;;;;;;;20.47;14.63;;;;;;;6.86;100.00;99124.94;1441162;90;21346;-83
2023/11/11 00:09:45;;;;;;;21.73;15.60;;;;;;;6.89;100.00;99119.86;1433595;91;21348;-86
2023/11/11 00:12:11;;;;;;;24.53;18.37;;;;;;;6.89;100.00;99117.23;1432091;91;21451;-84
2023/11/11 00:14:38;;;;;;;24.00;17.20;;;;;;;6.89;100.00;99114.60;1439762;91;21548;-84
2023/11/11 00:17:04;;;;;;;30.57;18.23;;;;;;;6.88;100.00;99117.73;1437518;91;21628;-84
2023/11/11 00:19:31;;;;;;;23.90;16.50;;;;;;;6.87;100.00;99113.92;1440351;91;21421;-83
2023/11/11 00:21:57;;;;;;;28.47;18.67;;;;;;;6.86;100.00;99109.66;1436137;91;22375;-84
2023/11/11 00:24:23;;;;;;;24.13;17.83;;;;;;;6.85;100.00;99105.36;1435229;90;21422;-84
2023/11/11 00:26:49;;;;;;;24.67;17.03;;;;;;;6.85;100.00;99104.04;1437944;91;21532;-82
2023/11/11 00:29:16;;;;;;;27.10;18.37;;;;;;;6.86;100.00;99101.27;1429135;91;22265;-84
2023/11/11 00:31:49;;;;;;;23.50;16.60;;;;;;;6.89;100.00;99096.19;1434249;91;21629;-83
2023/11/11 00:34:17;;;;;;;23.57;17.27;;;;;;;6.91;100.00;99106.07;1435099;91;22398;-81
2023/11/11 00:36:45;;;;;;;22.77;16.83;;;;;;;6.90;100.00;99097.33;1433885;90;21423;-82
2023/11/11 00:39:12;;;;;;;20.27;16.73;;;;;;;6.91;100.00;99093.74;1432814;91;21583;-82
2023/11/11 00:41:39;;;;;;;25.23;16.67;;;;;;;6.92;100.00;99091.93;1431532;91;21451;-82
2023/11/11 00:44:10;;;;;;;22.03;16.50;;;;;;;6.93;100.00;99084.36;1434777;90;21406;-84
2023/11/11 00:46:38;;;;;;;24.57;15.50;;;;;;;6.95;100.00;99086.35;1446395;91;21586;-85
2023/11/11 00:49:06;;;;;;;22.30;15.83;;;;;;;6.96;100.00;99087.98;1436392;91;21445;-85
2023/11/11 00:51:32;;;;;;;21.70;15.87;;;;;;;6.97;100.00;99081.77;1438253;91;21634;-84
2023/11/11 00:53:59;;;;;;;24.23;16.83;;;;;;;6.97;100.00;99077.33;1432195;91;21616;-82
2023/11/11 00:56:25;;;;;;;23.93;15.27;;;;;;;6.99;100.00;99079.78;1435825;91;21378;-84
2023/11/11 00:58:51;;;;;;;25.97;17.40;;;;;;;7.02;100.00;99080.81;1445187;90;21576;-85
2023/11/11 01:01:17;;;;;;;21.10;14.53;;;;;;;7.06;100.00;99074.24;1433521;90;21510;-85
2023/11/11 01:03:43;;;;;;;19.27;15.03;;;;;;;7.07;100.00;99069.30;1427552;91;21326;-84
2023/11/11 01:06:11;;;;;;;19.87;14.50;;;;;;;7.08;100.00;99065.70;1445145;90;21540;-83
2023/11/11 01:08:37;;;;;;;20.40;13.70;;;;;;;7.10;100.00;99063.72;1429757;91;21443;-83
2023/11/11 01:11:04;;;;;;;18.10;14.27;;;;;;;7.12;100.00;99052.55;1428495;90;21443;-83
2023/11/11 01:13:30;;;;;;;24.83;14.47;;;;;;;7.13;100.00;99056.01;1440430;90;21550;-83
2023/11/11 01:15:59;;;;;;;20.17;13.93;;;;;;;7.14;100.00;99051.91;1430083;91;21606;-83
2023/11/11 01:18:29;;;;;;;16.90;13.17;;;;;;;7.17;100.00;99043.70;1427350;91;21451;-82
2023/11/11 01:20:54;;;;;;;18.97;13.33;;;;;;;7.21;100.00;99046.83;1429088;91;21444;-84
2023/11/11 01:23:21;;;;;;;19.70;13.90;;;;;;;7.23;100.00;99042.23;1438576;91;22515;-84
2023/11/11 01:25:47;;;;;;;16.60;12.10;;;;;;;7.23;100.00;99039.61;1434341;91;21466;-84
2023/11/11 01:28:13;;;;;;;18.63;13.43;;;;;;;7.24;100.00;99034.17;1437652;91;21348;-83
2023/11/11 01:30:40;;;;;;;16.17;11.63;;;;;;;7.29;100.00;99035.52;1433452;91;22464;-85
2023/11/11 01:33:06;;;;;;;14.20;11.73;;;;;;;7.33;100.00;99036.83;1436490;91;21354;-83
2023/11/11 01:35:32;;;;;;;19.77;12.03;;;;;;;7.37;100.00;99038.17;1426816;91;21377;-83
2023/11/11 01:37:58;;;;;;;16.17;11.60;;;;;;;7.42;100.00;99041.13;1436242;91;22412;-84
2023/11/11 01:40:24;;;;;;;16.50;12.97;;;;;;;7.46;100.00;99029.30;1435057;91;21472;-84
2023/11/11 01:42:51;;;;;;;14.33;10.40;;;;;;;7.49;100.00;99029.48;1435920;91;21370;-83
2023/11/11 01:45:18;;;;;;;16.87;11.40;;;;;;;7.50;100.00;99025.84;1434272;90;22353;-85
2023/11/11 01:47:45;;;;;;;14.27;10.63;;;;;;;7.51;100.00;99020.91;1428396;90;21569;-83
2023/11/11 01:50:12;;;;;;;14.13;11.10;;;;;;;7.51;100.00;99017.80;1427912;91;21474;-84
2023/11/11 01:52:39;;;;;;;12.73;10.63;;;;;;;7.55;100.00;99014.34;1410557;91;21429;-84
2023/11/11 01:55:07;;;;;;;16.60;10.73;;;;;;;7.57;100.00;99010.56;1435879;91;21650;-84
2023/11/11 01:57:34;;;;;;;13.67;11.00;;;;;;;7.60;100.00;99006.28;1432307;91;21392;-84
2023/11/11 02:00:10;;;;;;;13.97;10.33;;;;;;;7.61;100.00;99007.92;1431106;91;21450;-84
2023/11/11 02:02:30;;;;;;;17.30;10.20;;;;;;;7.61;100.00;99003.16;1432679;91;21450;-84
2023/11/11 02:04:56;;;;;;;15.67;10.33;;;;;;;7.63;100.00;98999.88;1431349;91;21459;-84
2023/11/11 02:07:22;;;;;;;12.73;9.60;;;;;;;7.64;100.00;99000.20;1437806;91;22419;-83
2023/11/11 02:09:48;;;;;;;12.63;9.67;;;;;;;7.64;100.00;99005.46;1435851;91;21616;-85
2023/11/11 02:12:17;;;;;;;14.40;9.07;;;;;;;7.64;100.00;99001.02;1428029;91;21362;-84
2023/11/11 02:14:44;;;;;;;13.77;10.07;;;;;;;7.63;100.00;99001.19;1434680;91;22272;-83
2023/11/11 02:17:10;;;;;;;13.47;8.60;;;;;;;7.66;100.00;99002.18;1429517;91;21635;-85
2023/11/11 02:19:36;;;;;;;12.73;9.53;;;;;;;7.67;100.00;98998.05;1435295;91;21770;-85
2023/11/11 02:22:03;;;;;;;14.07;9.53;;;;;;;7.71;100.00;98999.04;1433890;91;21355;-84
2023/11/11 02:24:31;;;;;;;13.07;9.27;;;;;;;7.74;100.00;98992.97;1430533;91;21531;-84
2023/11/11 02:26:57;;;;;;;10.73;7.40;;;;;;;7.77;100.00;98993.11;1418285;91;21436;-82
2023/11/11 02:29:23;;;;;;;10.37;7.80;;;;;;;7.80;100.00;98998.08;1430864;90;21575;-82
2023/11/11 02:31:50;;;;;;;11.90;9.40;;;;;;;7.83;100.00;98995.11;1428676;91;21576;-82
2023/11/11 02:34:16;;;;;;;10.47;8.20;;;;;;;7.86;100.00;98994.78;1434885;91;21318;-83
2023/11/11 02:36:42;;;;;;;9.00;7.57;;;;;;;7.89;100.00;98995.27;1439989;91;21517;-82
2023/11/11 02:39:08;;;;;;;11.57;7.23;;;;;;;7.91;100.00;98989.34;1437523;91;22324;-83
2023/11/11 02:41:35;;;;;;;10.60;7.13;;;;;;;7.94;100.00;98990.83;1431072;91;21540;-83
2023/11/11 02:44:01;;;;;;;8.67;7.37;;;;;;;7.97;100.00;98983.91;1435872;90;22249;-86
2023/11/11 02:46:32;;;;;;;12.30;7.80;;;;;;;7.95;100.00;98991.15;1427294;91;21414;-85
2023/11/11 02:48:58;;;;;;;11.27;6.73;;;;;;;7.96;100.00;98984.06;1439973;90;21295;-86
2023/11/11 02:51:30;;;;;;;10.53;7.57;;;;;;;7.94;100.00;98986.87;1434227;91;21528;-84
2023/11/11 02:53:56;;;;;;;13.60;7.90;;;;;;;7.95;100.00;98988.52;1432029;90;21496;-85
2023/11/11 02:56:22;;;;;;;8.93;7.43;;;;;;;7.97;100.00;98987.86;1413426;91;21436;-84
2023/11/11 02:58:48;;;;;;;9.70;7.03;;;;;;;8.00;100.00;98978.77;1437257;91;21443;-85
2023/11/11 03:01:14;;;;;;;11.77;8.03;;;;;;;8.02;100.00;98981.58;1437939;91;21443;-84
2023/11/11 03:03:40;;;;;;;9.10;7.17;;;;;;;8.02;100.00;98978.94;1439446;91;21340;-84
2023/11/11 03:06:07;;;;;;;10.13;7.83;;;;;;;8.01;100.00;98978.63;1435364;91;21599;-84
2023/11/11 03:08:36;;;;;;;14.27;8.27;;;;;;;8.02;100.00;98980.76;1430109;90;22337;-85
2023/11/11 03:11:03;;;;;;;11.40;8.43;;;;;;;8.03;100.00;98973.20;1407286;91;22478;-82
2023/11/11 03:13:29;;;;;;;10.93;8.17;;;;;;;8.03;100.00;98973.20;1425148;91;21540;-83
2023/11/11 03:15:56;;;;;;;10.63;8.03;;;;;;;7.99;100.00;98968.73;1413351;91;21540;-82
2023/11/11 03:18:22;;;;;;;11.03;7.57;;;;;;;7.98;100.00;98963.16;1433233;91;21458;-86
2023/11/11 03:20:48;;;;;;;9.80;7.67;;;;;;;7.99;100.00;98965.28;1432121;91;22478;-87
2023/11/11 03:23:15;;;;;;;14.60;9.60;;;;;;;7.95;100.00;98966.13;1430296;91;21421;-87
2023/11/11 03:25:41;;;;;;;12.40;8.57;;;;;;;7.94;100.00;98963.17;1435835;90;22296;-87
2023/11/11 03:28:07;;;;;;;13.43;9.00;;;;;;;7.94;100.00;98959.22;1441608;91;21594;-87
2023/11/11 03:30:36;;;;;;;9.47;7.10;;;;;;;7.95;100.00;98958.22;1428620;91;21509;-87
2023/11/11 03:33:02;;;;;;;15.37;8.83;;;;;;;7.94;100.00;98955.27;1433595;90;21399;-85
2023/11/11 03:35:28;;;;;;;10.40;7.60;;;;;;;7.94;100.00;98961.00;1435326;91;21480;-85
2023/11/11 03:37:54;;;;;;;12.67;8.97;;;;;;;7.94;100.00;98961.85;1418491;91;22287;-83
2023/11/11 03:40:20;;;;;;;15.07;9.00;;;;;;;7.92;100.00;98959.87;1426188;91;21451;-85
2023/11/11 03:42:47;;;;;;;12.73;9.53;;;;;;;7.88;100.00;98950.17;1433258;91;21592;-86
2023/11/11 03:45:13;;;;;;;14.30;9.20;;;;;;;7.88;100.00;98949.31;1433617;90;21452;-84
2023/11/11 03:47:40;;;;;;;11.50;8.43;;;;;;;7.89;100.00;98949.67;1437015;91;21406;-84
2023/11/11 03:50:09;;;;;;;13.93;9.47;;;;;;;7.87;100.00;98952.95;1427956;90;21521;-84
2023/11/11 03:52:36;;;;;;;12.37;9.40;;;;;;;7.87;100.00;98939.78;1428037;91;22302;-84
2023/11/11 03:55:04;;;;;;;17.53;9.73;;;;;;;7.83;100.00;98937.16;1437367;90;21428;-83
2023/11/11 03:57:32;;;;;;;12.00;9.47;;;;;;;7.82;100.00;98934.18;1439375;90;21406;-82
2023/11/11 03:59:59;;;;;;;12.27;9.77;;;;;;;7.80;100.00;98930.91;1432107;90;21797;-84
2023/11/11 04:02:26;;;;;;;14.97;10.10;;;;;;;7.80;100.00;98930.41;1440524;91;22315;-84
2023/11/11 04:04:52;;;;;;;13.87;8.07;;;;;;;7.81;100.00;98927.28;1433868;90;21450;-84
2023/11/11 04:07:18;;;;;;;11.23;8.73;;;;;;;7.79;100.00;98924.80;1438695;90;22347;-84
2023/11/11 04:09:46;;;;;;;12.07;9.43;;;;;;;7.75;100.00;98928.77;1432778;91;21421;-84
2023/11/11 04:12:13;;;;;;;15.40;8.87;;;;;;;7.73;100.00;98922.83;1431297;90;22406;-84
2023/11/11 04:14:39;;;;;;;13.53;8.97;;;;;;;7.69;100.00;98916.27;1439592;91;22301;-83
2023/11/11 04:17:05;;;;;;;12.03;8.90;;;;;;;7.67;100.00;98913.78;1440722;91;21528;-84
2023/11/11 04:19:32;;;;;;;10.47;8.43;;;;;;;7.68;100.00;98913.28;1435817;91;21510;-84
2023/11/11 04:21:58;;;;;;;13.63;9.70;;;;;;;7.68;100.00;98919.40;1425668;91;21540;-84
2023/11/11 04:24:25;;;;;;;13.77;9.30;;;;;;;7.66;100.00;98916.09;1429219;90;21848;-84
2023/11/11 04:26:51;;;;;;;13.67;9.87;;;;;;;7.65;100.00;98917.09;1437047;91;21511;-84
2023/11/11 04:29:17;;;;;;;15.83;10.47;;;;;;;7.65;100.00;98918.41;1434313;91;21385;-84
2023/11/11 04:31:43;;;;;;;12.60;9.33;;;;;;;7.65;100.00;98917.56;1426905;91;21340;-84
2023/11/11 04:34:09;;;;;;;13.27;9.70;;;;;;;7.63;100.00;98913.80;1426320;91;22354;-84
2023/11/11 04:36:38;;;;;;;12.23;9.07;;;;;;;7.61;100.00;98906.55;1426517;91;21421;-84
2023/11/11 04:39:07;;;;;;;16.17;10.67;;;;;;;7.58;100.00;98902.94;1445920;90;21569;-84
2023/11/11 04:41:33;;;;;;;16.27;10.43;;;;;;;7.56;100.00;98892.23;1420383;91;21509;-83
2023/11/11 04:43:59;;;;;;;13.93;9.97;;;;;;;7.54;100.00;98887.16;1437154;91;21461;-85
2023/11/11 04:46:25;;;;;;;13.80;10.60;;;;;;;7.52;100.00;98886.48;1436180;91;21554;-85
2023/11/11 04:48:51;;;;;;;15.40;11.53;;;;;;;7.52;100.00;98882.53;1435547;90;22250;-86
2023/11/11 04:51:17;;;;;;;18.67;13.03;;;;;;;7.51;100.00;98877.42;1430276;91;21524;-87
2023/11/11 04:53:43;;;;;;;15.87;12.30;;;;;;;7.50;100.00;98875.30;1432974;91;21348;-86
2023/11/11 04:56:09;;;;;;;16.60;12.17;;;;;;;7.51;100.00;98880.91;1433991;90;21561;-86
2023/11/11 04:58:38;;;;;;;12.67;10.10;;;;;;;7.52;100.00;98888.30;1428357;90;21362;-87
2023/11/11 05:01:05;;;;;;;16.53;10.40;;;;;;;7.53;100.00;98894.70;1428208;91;23040;-87
2023/11/11 05:03:32;;;;;;;15.57;10.33;;;;;;;7.54;100.00;98899.00;1437906;91;21414;-84
2023/11/11 05:05:58;;;;;;;14.90;11.23;;;;;;;7.53;100.00;98893.39;1443479;91;21600;-87
2023/11/11 05:08:26;;;;;;;15.13;11.23;;;;;;;7.53;100.00;98898.66;1435291;91;21385;-87
2023/11/11 05:10:52;;;;;;;15.77;11.10;;;;;;;7.54;100.00;98895.05;1415674;91;22332;-87
2023/11/11 05:13:20;;;;;;;16.43;11.20;;;;;;;7.54;100.00;98887.16;1438409;90;21560;-86
2023/11/11 05:15:58;;;;;;;16.10;11.90;;;;;;;7.56;100.00;98902.27;1428357;90;22189;-86
2023/11/11 05:18:14;;;;;;;16.33;12.00;;;;;;;7.59;100.00;98903.75;1434238;91;21547;-86
2023/11/11 05:20:41;;;;;;;15.57;11.00;;;;;;;7.61;100.00;98905.23;1432291;91;22258;-87
2023/11/11 05:23:11;;;;;;;13.90;10.83;;;;;;;7.64;100.00;98908.85;1433387;91;22441;-85
2023/11/11 05:25:38;;;;;;;15.57;11.40;;;;;;;7.66;100.00;98916.09;1444468;91;21348;-83
2023/11/11 05:28:05;;;;;;;21.77;12.80;;;;;;;7.69;100.00;98920.22;1424281;91;22316;-86
2023/11/11 05:30:32;;;;;;;16.33;10.63;;;;;;;7.71;100.00;98916.08;1432801;91;21517;-85
2023/11/11 05:32:58;;;;;;;17.30;11.63;;;;;;;7.69;100.00;98920.22;1440265;90;21451;-87
2023/11/11 05:35:24;;;;;;;16.73;10.20;;;;;;;7.71;100.00;98920.03;1438033;91;21457;-87
2023/11/11 05:37:50;;;;;;;18.23;11.90;;;;;;;7.73;100.00;98924.65;1431188;91;21354;-83
2023/11/11 05:40:18;;;;;;;16.77;11.67;;;;;;;7.74;100.00;98922.33;1439449;91;21326;-87
2023/11/11 05:42:49;;;;;;;20.63;12.40;;;;;;;7.74;100.00;98920.55;1433961;90;21385;-85
2023/11/11 05:45:20;;;;;;;;;;;;;;;7.74;100.00;98923.66;1444235;91;21458;-83
2023/11/11 05:47:44;;;;;;;20.00;11.63;;;;;;;7.71;100.00;98920.03;1435732;91;20391;-84
2023/11/11 05:50:11;;;;;;;18.30;12.70;;;;;;;7.68;100.00;98918.08;1430440;90;21390;-84
2023/11/11 05:52:38;;;;;;;21.20;12.97;;;;;;;7.68;100.00;98923.34;1430755;90;21377;-84
2023/11/11 05:55:08;;;;;;;20.13;12.73;;;;;;;7.69;100.00;98918.90;1437223;91;21524;-84
2023/11/11 05:57:38;;;;;;;18.93;13.40;;;;;;;7.69;100.00;98920.22;1412204;91;22205;-84
2023/11/11 06:00:11;;;;;;;20.90;13.30;;;;;;;7.71;100.00;98923.98;1428816;91;21384;-84
2023/11/11 06:02:35;;;;;;;24.23;14.43;;;;;;;7.73;100.00;98927.28;1430205;91;21672;-84
2023/11/11 06:05:01;;;;;;;19.03;12.20;;;;;;;7.72;100.00;98929.09;1434165;91;22360;-84
2023/11/11 06:07:27;;;;;;;19.50;12.57;;;;;;;7.72;100.00;98921.70;1440315;91;21524;-84
2023/11/11 06:09:54;;;;;;;26.57;13.20;;;;;;;7.72;100.00;98925.15;1431760;90;21407;-83
2023/11/11 06:12:20;;;;;;;24.47;15.07;;;;;;;7.72;100.00;98913.30;1435526;91;22382;-85
2023/11/11 06:14:47;;;;;;;27.70;15.60;;;;;;;7.73;100.00;98918.06;1433387;90;21481;-85
2023/11/11 06:17:13;;;;;;;27.73;15.53;;;;;;;7.73;100.00;98914.93;1443754;91;21536;-88
2023/11/11 06:19:39;;;;;;;25.30;15.70;;;;;;;7.73;100.00;98911.48;1431077;91;21414;-88
2023/11/11 06:22:05;;;;;;;27.77;15.67;;;;;;;7.76;100.00;98907.20;1436394;90;21355;-90
2023/11/11 06:24:32;;;;;;;25.87;16.03;;;;;;;7.80;100.00;98908.03;1439600;91;21384;-85
2023/11/11 06:26:58;;;;;;;19.03;12.67;;;;;;;7.86;100.00;98904.72;1438201;89;21414;-85
2023/11/11 06:29:24;;;;;;;22.43;14.00;;;;;;;7.91;100.00;98906.84;1415821;91;21576;-84
2023/11/11 06:31:52;;;;;;;25.00;14.20;;;;;;;7.94;100.00;98914.43;1434691;91;21400;-86
2023/11/11 06:34:21;;;;;;;21.77;13.97;;;;;;;7.96;100.00;98915.06;1429674;90;22250;-86
2023/11/11 06:36:47;;;;;;;23.73;14.70;;;;;;;7.94;100.00;98911.80;1441508;90;22280;-85
2023/11/11 06:39:13;;;;;;;26.60;14.53;;;;;;;7.97;100.00;98914.09;1419142;91;21392;-86
2023/11/11 06:41:45;;;;;;;22.37;14.23;;;;;;;7.99;100.00;98918.68;1411491;91;21487;-88
2023/11/11 06:44:08;;;;;;;21.10;14.87;;;;;;;7.98;100.00;98918.36;1439959;91;21429;-88
2023/11/11 06:46:34;;;;;;;21.90;14.53;;;;;;;7.98;100.00;98917.55;1434173;91;21385;-82
2023/11/11 06:49:00;;;;;;;22.27;15.37;;;;;;;7.99;100.00;98912.09;1433853;90;21414;-84
2023/11/11 06:51:27;;;;;;;25.13;15.03;;;;;;;8.01;100.00;98906.67;1440706;90;22264;-83
2023/11/11 06:53:54;;;;;;;26.83;14.80;;;;;;;8.03;100.00;98913.42;1434726;90;21429;-85
2023/11/11 06:56:20;;;;;;;25.13;15.50;;;;;;;8.03;100.00;98910.78;1428887;91;22324;-83
2023/11/11 06:58:46;;;;;;;23.73;15.37;;;;;;;8.02;100.00;98913.07;1420410;91;21561;-85
2023/11/11 07:01:12;;;;;;;22.07;14.37;;;;;;;8.04;100.00;98911.60;1431766;91;21503;-84
2023/11/11 07:03:39;;;;;;;27.00;17.67;;;;;;;8.04;100.00;98920.32;1430301;91;22563;-84
2023/11/11 07:06:06;;;;;;;29.47;17.47;;;;;;;8.06;100.00;98922.30;1440724;91;21429;-84
2023/11/11 07:08:33;;;;;;;27.67;16.97;;;;;;;8.09;100.00;98917.20;1445190;90;21536;-83
2023/11/11 07:11:00;;;;;;;27.07;16.67;;;;;;;8.13;100.00;98911.40;1438584;91;21466;-83
2023/11/11 07:13:27;;;;;;;30.10;18.40;;;;;;;8.19;100.00;98905.95;1439261;91;21348;-83
2023/11/11 07:15:54;;;;;;;23.93;15.50;;;;;;;8.24;100.00;98906.77;1431566;90;22345;-86
2023/11/11 07:18:20;;;;;;;28.53;17.67;;;;;;;8.30;100.00;98908.73;1442674;90;21997;-84
2023/11/11 07:20:46;;;;;;;33.60;17.10;;;;;;;8.33;100.00;98901.80;1439393;91;21601;-87
2023/11/11 07:23:14;;;;;;;27.03;17.30;;;;;;;8.42;100.00;98905.25;1431805;91;22257;-85
2023/11/11 07:25:41;;;;;;;36.20;21.13;;;;;;;8.51;100.00;98908.99;1437099;91;21605;-85
2023/11/11 07:28:07;;;;;;;23.60;16.33;;;;;;;8.58;100.00;98907.33;1433314;90;21362;-85
2023/11/11 07:30:38;;;;;;;25.97;15.90;;;;;;;8.64;100.00;98905.82;1420362;91;21444;-85
2023/11/11 07:33:01;;;;;;;26.97;16.40;;;;;;;8.67;100.00;98911.25;1427122;91;21413;-85
2023/11/11 07:35:28;;;;;;;27.50;15.53;;;;;;;8.68;100.00;98904.47;1434759;91;21399;-84
2023/11/11 07:37:54;;;;;;;32.43;17.03;;;;;;;8.67;100.00;98908.11;1439299;91;21333;-83
2023/11/11 07:40:21;;;;;;;27.63;18.10;;;;;;;8.65;100.00;98910.59;1425718;90;21591;-82
2023/11/11 07:42:47;;;;;;;28.30;18.90;;;;;;;8.66;100.00;98905.63;1424233;91;21371;-85
2023/11/11 07:45:13;;;;;;;30.93;19.77;;;;;;;8.67;100.00;98909.94;1434772;90;21345;-80
2023/11/11 07:47:41;;;;;;;26.37;17.20;;;;;;;8.69;100.00;98906.61;1431307;90;22331;-86
2023/11/11 07:50:09;;;;;;;27.67;16.27;;;;;;;8.70;100.00;98904.31;1437108;90;21319;-84
2023/11/11 07:52:36;;;;;;;24.67;15.00;;;;;;;8.73;100.00;98902.64;1411709;91;21587;-84
2023/11/11 07:55:02;;;;;;;25.07;15.60;;;;;;;8.75;100.00;98901.48;1432683;91;21399;-83
2023/11/11 07:57:29;;;;;;;31.60;19.50;;;;;;;8.78;100.00;98893.22;1432589;91;21430;-84
2023/11/11 07:59:55;;;;;;;29.33;18.60;;;;;;;8.82;100.00;98891.05;1436485;90;21370;-83
2023/11/11 08:02:24;;;;;;;30.63;18.13;;;;;;;8.88;100.00;98889.03;1437125;91;21568;-84
2023/11/11 08:04:50;;;;;;;25.17;15.33;;;;;;;8.91;100.00;98885.23;1431497;91;21450;-83
2023/11/11 08:07:18;;;;;;;25.07;15.10;;;;;;;8.94;100.00;98872.50;1433012;91;21414;-83
2023/11/11 08:09:44;;;;;;;26.87;16.47;;;;;;;9.02;100.00;98869.81;1431599;91;21413;-81
2023/11/11 08:12:11;;;;;;;28.90;15.97;;;;;;;9.09;100.00;98866.46;1436984;91;21414;-83
2023/11/11 08:14:37;;;;;;;28.30;16.93;;;;;;;9.14;100.00;98872.05;1419523;91;21700;-84
2023/11/11 08:17:04;;;;;;;23.73;15.07;;;;;;;9.18;100.00;98874.17;1427218;91;21385;-85
2023/11/11 08:19:30;;;;;;;27.80;16.10;;;;;;;9.21;100.00;98872.99;1441511;90;21362;-87
2023/11/11 08:21:57;;;;;;;24.13;14.50;;;;;;;9.22;100.00;98867.52;1433459;91;21554;-84
2023/11/11 08:24:23;;;;;;;27.90;15.10;;;;;;;9.22;100.00;98862.75;1415684;91;21333;-84
2023/11/11 08:26:50;;;;;;;26.17;16.40;;;;;;;9.24;100.00;98863.40;1436351;91;22433;-87
2023/11/11 08:29:16;;;;;;;26.73;15.37;;;;;;;9.24;100.00;98868.17;1430342;91;21916;-87
2023/11/11 08:31:42;;;;;;;22.80;15.13;;;;;;;9.26;100.00;98864.02;1432561;91;21339;-88
2023/11/11 08:34:08;;;;;;;26.07;14.80;;;;;;;9.30;100.00;98861.37;1437823;91;21384;-83
2023/11/11 08:36:36;;;;;;;29.17;15.37;;;;;;;9.32;100.00;98853.25;1433444;91;21370;-82
2023/11/11 08:39:02;;;;;;;24.73;14.20;;;;;;;9.33;100.00;98863.65;1436002;91;21494;-84
2023/11/11 08:41:29;;;;;;;24.70;13.80;;;;;;;9.35;100.00;98864.78;1432942;90;21576;-84
2023/11/11 08:43:55;;;;;;;23.50;15.13;;;;;;;9.37;100.00;98864.92;1446115;91;22411;-84
2023/11/11 08:46:21;;;;;;;24.97;13.97;;;;;;;9.41;100.00;98869.38;1430964;90;21332;-84
2023/11/11 08:48:47;;;;;;;22.83;13.80;;;;;;;9.40;100.00;98865.89;1432572;91;21393;-81
2023/11/11 08:51:14;;;;;;;27.10;15.13;;;;;;;9.40;100.00;98863.25;1432198;91;22405;-88
2023/11/11 08:53:40;;;;;;;29.67;16.37;;;;;;;9.43;100.00;98862.89;1434858;91;21437;-83
2023/11/11 08:56:07;;;;;;;29.20;17.07;;;;;;;9.46;100.00;98869.13;1431610;91;22471;-83
2023/11/11 08:58:33;;;;;;;22.80;14.97;;;;;;;9.49;100.00;98868.80;1434419;91;22198;-84
2023/11/11 09:00:59;;;;;;;25.43;15.53;;;;;;;9.50;100.00;98860.38;1418846;91;21435;-82
2023/11/11 09:03:27;;;;;;;27.90;16.63;;;;;;;9.51;100.00;98863.33;1416058;91;22287;-84
2023/11/11 09:05:54;;;;;;;24.73;14.97;;;;;;;9.55;100.00;98856.70;1432456;91;21543;-82
2023/11/11 09:08:20;;;;;;;27.47;16.07;;;;;;;9.58;100.00;98853.70;1428560;90;21377;-83
2023/11/11 09:10:47;;;;;;;26.00;14.57;;;;;;;9.58;100.00;98860.78;1436257;91;21414;-83
2023/11/11 09:13:15;;;;;;;24.80;14.63;;;;;;;9.59;100.00;98856.66;1433213;91;21355;-82
2023/11/11 09:15:41;;;;;;;28.47;16.10;;;;;;;9.63;100.00;98852.64;1440612;91;21428;-81
2023/11/11 09:18:08;;;;;;;31.73;17.63;;;;;;;9.67;100.00;98853.94;1427870;91;22391;-83
2023/11/11 09:20:36;;;;;;;27.47;15.13;;;;;;;9.70;100.00;98851.44;1439998;91;21442;-82
2023/11/11 09:23:02;;;;;;;25.57;14.70;;;;;;;9.70;100.00;98846.16;1433400;90;21429;-83
2023/11/11 09:25:29;;;;;;;27.77;15.13;;;;;;;9.68;100.00;98848.97;1430792;91;21473;-82
2023/11/11 09:27:57;;;;;;;22.53;12.87;;;;;;;9.72;100.00;98852.06;1438731;91;22040;-82
2023/11/11 09:30:23;;;;;;;24.23;14.10;;;;;;;9.76;100.00;98853.86;1437599;90;21385;-82
2023/11/11 09:32:51;;;;;;;23.83;13.53;;;;;;;9.80;100.00;98854.62;1435144;91;21524;-82
2023/11/11 09:35:17;;;;;;;25.50;14.00;;;;;;;9.82;100.00;98853.95;1427197;90;21326;-86
2023/11/11 09:37:44;;;;;;;34.07;18.17;;;;;;;9.85;100.00;98855.41;1430936;91;21430;-82
2023/11/11 09:40:11;;;;;;;26.90;16.50;;;;;;;9.81;100.00;98858.92;1414369;91;21473;-89
2023/11/11 09:42:38;;;;;;;29.53;17.23;;;;;;;9.81;100.00;98852.32;1412444;91;21377;-80
2023/11/11 09:45:06;;;;;;;26.57;15.40;;;;;;;9.82;100.00;98854.45;1436381;91;21533;-82
2023/11/11 09:47:33;;;;;;;29.37;16.13;;;;;;;9.82;100.00;98849.98;1439168;91;21333;-85
2023/11/11 09:50:05;;;;;;;26.23;16.50;;;;;;;9.81;100.00;98847.04;1444052;90;21465;-82
2023/11/11 09:52:34;;;;;;;21.77;13.13;;;;;;;9.80;100.00;98841.92;1434516;90;22271;-85
2023/11/11 09:55:02;;;;;;;23.83;14.10;;;;;;;9.78;100.00;98838.62;1435262;89;22445;-86
2023/11/11 09:57:31;;;;;;;23.53;13.93;;;;;;;9.78;100.00;98838.16;1412545;91;21363;-85
2023/11/11 09:59:58;;;;;;;19.63;13.30;;;;;;;9.82;100.00;98831.49;1425310;90;21510;-83
2023/11/11 10:02:26;;;;;;;17.93;11.67;;;;;;;9.84;100.00;98830.82;1427293;91;21377;-84
2023/11/11 10:04:54;;;;;;;19.77;12.13;;;;;;;9.85;100.00;98826.34;1444178;91;21473;-86
2023/11/11 10:07:25;;;;;;;18.87;12.37;;;;;;;9.88;100.00;98820.70;1432011;91;21451;-85
2023/11/11 10:09:52;;;;;;;21.67;12.67;;;;;;;9.88;100.00;98822.83;1408804;91;21612;-85
2023/11/11 10:12:18;;;;;;;19.97;12.17;;;;;;;9.88;100.00;98808.30;1429112;91;21340;-85
2023/11/11 10:14:44;;;;;;;19.77;12.83;;;;;;;9.89;100.00;98813.89;1432968;91;21514;-81
2023/11/11 10:17:14;;;;;;;19.63;12.10;;;;;;;9.90;100.00;98805.48;1431865;91;22314;-84
2023/11/11 10:19:42;;;;;;;23.13;14.23;;;;;;;9.92;100.00;98802.95;1415242;91;21422;-85
2023/11/11 10:22:08;;;;;;;22.63;13.37;;;;;;;9.95;100.00;98800.45;1431157;91;21469;-85
2023/11/11 10:24:36;;;;;;;17.93;11.53;;;;;;;9.97;100.00;98798.45;1413750;91;22381;-86
2023/11/11 10:27:13;;;;;;;19.87;12.50;;;;;;;9.98;100.00;98796.13;1432892;91;21584;-86
2023/11/11 10:29:41;;;;;;;15.87;10.90;;;;;;;9.99;100.00;98799.61;1440168;91;21444;-86
2023/11/11 10:32:09;;;;;;;16.17;11.30;;;;;;;10.01;100.00;98797.58;1442238;90;21333;-84
2023/11/11 10:34:40;;;;;;;18.60;11.93;;;;;;;10.01;100.00;98790.97;1434438;91;22976;-85
2023/11/11 10:37:07;;;;;;;18.67;12.03;;;;;;;9.98;100.00;98787.38;1438808;90;21377;-87
2023/11/11 10:39:34;;;;;;;19.07;13.60;;;;;;;9.97;100.00;98783.92;1412431;91;21376;-87
2023/11/11 10:42:04;;;;;;;13.97;10.57;;;;;;;9.99;100.00;98781.92;1436709;91;21443;-86
2023/11/11 10:44:32;;;;;;;21.40;13.07;;;;;;;10.04;100.00;98785.31;1425147;90;21890;-87
2023/11/11 10:46:59;;;;;;;22.93;13.77;;;;;;;10.06;100.00;98787.28;1437197;91;22412;-85
2023/11/11 10:49:29;;;;;;;21.73;13.87;;;;;;;10.06;100.00;98782.00;1433388;91;22020;-87
2023/11/11 10:51:58;;;;;;;17.57;13.03;;;;;;;10.06;100.00;98773.56;1430724;91;21457;-85
2023/11/11 10:54:26;;;;;;;21.82;14.10;;;;;;;10.11;100.00;98773.02;1436129;90;21371;-84
2023/11/11 10:56:56;;;;;;;43.13;24.90;;;;;;;10.17;100.00;98774.92;1438392;91;21377;-85
2023/11/11 10:59:25;;;;;;;27.27;17.92;;;;;;;10.27;100.00;98774.17;1435080;90;21466;-85
2023/11/11 11:01:51;;;;;;;25.63;15.73;;;;;;;10.35;100.00;98770.57;1428752;91;21443;-84
2023/11/11 11:04:18;;;;;;;26.57;17.40;;;;;;;10.39;100.00;98771.86;1429590;90;22279;-86
2023/11/11 11:07:03;;;;;;;26.47;18.40;;;;;;;10.41;100.00;98774.30;1419783;91;21536;-83
2023/11/11 11:09:47;;;;;;;21.23;13.43;;;;;;;10.38;100.00;98771.02;1440483;91;21377;-85
2023/11/11 11:12:56;;;;;;;20.73;14.17;;;;;;;10.26;100.00;98769.02;1427266;91;22411;-86
2023/11/11 11:15:22;;;;;;;20.90;14.23;;;;;;;10.13;100.00;98771.83;1433884;90;22213;-83
2023/11/11 11:17:51;;;;;;;24.07;14.30;;;;;;;10.07;100.00;98775.70;1420362;91;21435;-82